Thunderstorms From: 26-05-2018 21:24 Until: 27-05-2018 15:00 warning for: Thunderstorms Level: Yellow info button

Although rather usual in this region, locally or potentially dangerous phenomena are expected. (such as local winds, summer thunderstorms, rising streams or high waves) Be aware and pay attention to the latest weather updates, especially if you carry out activities exposed to weather or close to a stream or shoreline. 


Meteo18 Weather Cam more information Meteo18 Weather Cam


warning for Thunderstorms more information blitzortung!


Rain radar more information rain snow radar


Visit our other weather sites:

Template documentation
and downloads

And another site



Weather Underground History page Text

Daily Summary for January 29, 2016 Units:  Metric    English   Both
« Previous Day
Next Day »
Daily Weekly Monthly Yearly Custom
  High: Low: Average:
Temperature: -17.8 °C -17.9 °C -14.7 °C
Dew Point: -17.8 °C -18.2 °C -15.4 °C
Humidity: Humidity % 79 % 91 %
Wind Speed: 0 km/h 0 km/h 2.9 km/h
Wind Gust: 0 km/h - -
Wind:- - SW
Pressure: 0 hPa 34852.1 hPa -
Precipitation: 0 mm    
Historical Graphs
 
 
Tabular Data for January 29, 2016
Time Temperature Dew Point Pressure Wind Wind Speed Wind Gust Humidity Rainfall Rate (Hourly)
-17.8 °C -17.8 °C 0 hPa Calm     Humidity % 0 mm
00:02 -14.2 °C -14.6 °C 34909.7 hPa Calm   5.1 km/h 96 % 0 mm
00:07 -14.3 °C -14.6 °C 34909.7 hPa Calm   5.1 km/h 96 % 0 mm
00:12 -14.3 °C -14.6 °C 34909.7 hPa Calm   5.1 km/h 96 % 0 mm
00:17 -14.3 °C -14.6 °C 34909.7 hPa Calm   2.6 km/h 96 % 0 mm
00:32 -14.4 °C -14.7 °C 34909.7 hPa Calm   2.6 km/h 96 % 0 mm
00:42 -14.5 °C -14.8 °C 34923.2 hPa Calm     96 % 0 mm
00:47 -14.6 °C -14.9 °C 34923.2 hPa Calm     96 % 0 mm
00:52 -14.6 °C -14.9 °C 34923.2 hPa Calm     96 % 0 mm
00:57 -14.6 °C -14.9 °C 34923.2 hPa Calm   2.6 km/h 96 % 0 mm
01:02 -14.6 °C -14.9 °C 34933.4 hPa Calm   2.6 km/h 96 % 0 mm
01:12 -14.6 °C -14.9 °C 34933.4 hPa Calm     96 % 0 mm
01:17 -14.6 °C -14.9 °C 34933.4 hPa Calm   2.6 km/h 96 % 0 mm
01:22 -14.6 °C -14.9 °C 34933.4 hPa Calm   2.6 km/h 96 % 0 mm
01:27 -14.6 °C -14.9 °C 34933.4 hPa Calm   2.6 km/h 96 % 0 mm
01:32 -14.6 °C -14.9 °C 34933.4 hPa Calm   2.6 km/h 96 % 0 mm
01:47 -14.6 °C -14.9 °C 34923.2 hPa Calm     96 % 0 mm
01:57 -14.6 °C -14.9 °C 34933.4 hPa Calm     96 % 0 mm
02:07 -14.6 °C -14.9 °C 34933.4 hPa Calm     96 % 0 mm
02:12 -14.6 °C -14.9 °C 34933.4 hPa Calm     96 % 0 mm
02:17 -14.6 °C -14.9 °C 34923.2 hPa Calm     96 % 0 mm
02:22 -14.6 °C -14.9 °C 34933.4 hPa Calm     96 % 0 mm
02:32 -14.7 °C -15 °C 34923.2 hPa Calm   2.6 km/h 96 % 0 mm
02:37 -14.7 °C -15.1 °C 34923.2 hPa Calm   2.6 km/h 96 % 0 mm
02:42 -14.8 °C -15.1 °C 34923.2 hPa Calm   2.6 km/h 96 % 0 mm
02:47 -14.8 °C -15.2 °C 34923.2 hPa Calm   2.6 km/h 96 % 0 mm
02:52 -14.9 °C -15.3 °C 34923.2 hPa Calm   2.6 km/h 96 % 0 mm
02:57 -15.2 °C -15.5 °C 34923.2 hPa Calm     96 % 0 mm
03:02 -15.3 °C -15.7 °C 34933.4 hPa Calm     96 % 0 mm
03:07 -15.4 °C -15.7 °C 34933.4 hPa Calm     96 % 0 mm
03:12 -15.5 °C -15.8 °C 34933.4 hPa Calm     96 % 0 mm
03:17 -15.6 °C -15.9 °C 34933.4 hPa Calm     96 % 0 mm
03:22 -15.7 °C -16 °C 34946.9 hPa Calm     96 % 0 mm
03:27 -15.7 °C -15.9 °C 34946.9 hPa Calm     97 % 0 mm
03:32 -15.8 °C -16 °C 34946.9 hPa Calm     97 % 0 mm
03:37 -15.9 °C -16.1 °C 34946.9 hPa Calm   2.6 km/h 97 % 0 mm
03:42 -15.9 °C -16.1 °C 34946.9 hPa Calm   2.6 km/h 97 % 0 mm
03:47 -15.8 °C -16 °C 34946.9 hPa Calm     97 % 0 mm
03:52 -15.8 °C -16 °C 34946.9 hPa Calm     97 % 0 mm
03:57 -15.8 °C -16 °C 34946.9 hPa Calm     97 % 0 mm
04:02 -15.7 °C -15.9 °C 34946.9 hPa Calm     97 % 0 mm
04:07 -15.6 °C -15.7 °C 34946.9 hPa Calm     98 % 0 mm
04:12 -15.4 °C -15.6 °C 34946.9 hPa Calm     98 % 0 mm
04:17 -15.4 °C -15.6 °C 34946.9 hPa Calm     98 % 0 mm
04:22 -15.4 °C -15.6 °C 34946.9 hPa Calm     98 % 0 mm
04:32 -15.4 °C -15.6 °C 34957.1 hPa Calm     98 % 0 mm
04:37 -15.4 °C -15.6 °C 34957.1 hPa Calm     98 % 0 mm
04:42 -15.4 °C -15.7 °C 34957.1 hPa Calm     97 % 0 mm
04:47 -15.4 °C -15.7 °C 34957.1 hPa Calm     97 % 0 mm
04:52 -15.5 °C -15.7 °C 34957.1 hPa Calm     97 % 0 mm
04:57 -15.7 °C -15.9 °C 34957.1 hPa Calm     97 % 0 mm
05:02 -15.7 °C -15.9 °C 34957.1 hPa Calm     97 % 0 mm
05:07 -15.9 °C -16.1 °C 34957.1 hPa Calm   2.6 km/h 97 % 0 mm
05:12 -15.9 °C -16.2 °C 34957.1 hPa Calm   2.6 km/h 97 % 0 mm
05:22 -16.1 °C -16.2 °C 34957.1 hPa Calm   2.6 km/h 98 % 0 mm
05:27 -16.2 °C -16.4 °C 34957.1 hPa Calm     97 % 0 mm
05:32 -16.3 °C -16.6 °C 34957.1 hPa Calm     97 % 0 mm
05:42 -16.5 °C -16.7 °C 34957.1 hPa Calm     97 % 0 mm
05:47 -16.6 °C -16.8 °C 34957.1 hPa Calm     97 % 0 mm
05:52 -16.7 °C -16.9 °C 34957.1 hPa Calm     97 % 0 mm
05:57 -16.8 °C -17 °C 34957.1 hPa Calm     97 % 0 mm
06:02 -16.8 °C -17.1 °C 34957.1 hPa Calm     97 % 0 mm
06:07 -16.9 °C -17.1 °C 34957.1 hPa Calm     97 % 0 mm
06:12 -17 °C -17.2 °C 34957.1 hPa Calm     97 % 0 mm
06:17 -17.1 °C -17.3 °C 34957.1 hPa Calm     97 % 0 mm
06:22 -17.2 °C -17.4 °C 34957.1 hPa Calm     97 % 0 mm
06:32 -17.1 °C -17.2 °C 34957.1 hPa Calm     98 % 0 mm
06:37 -17 °C -17.2 °C 34957.1 hPa Calm     98 % 0 mm
06:42 -16.9 °C -17.1 °C 34967.2 hPa West 2.6 km/h 2.6 km/h 98 % 0 mm
06:47 -17 °C -17.2 °C 34967.2 hPa Calm   2.6 km/h 98 % 0 mm
06:52 -17 °C -17.2 °C 34957.1 hPa Calm   2.6 km/h 98 % 0 mm
07:02 -17.1 °C -17.3 °C 34957.1 hPa Calm     98 % 0 mm
07:12 -17.4 °C -17.6 °C 34967.2 hPa Calm     97 % 0 mm
07:17 -17.4 °C -17.7 °C 34967.2 hPa Calm     97 % 0 mm
07:22 -17.5 °C -17.7 °C 34967.2 hPa Calm     97 % 0 mm
07:32 -17.7 °C -17.9 °C 34980.8 hPa Calm     97 % 0 mm
07:42 -17.7 °C -17.9 °C 34980.8 hPa Calm     98 % 0 mm
07:52 -17.7 °C -17.9 °C 34980.8 hPa Calm     98 % 0 mm
07:57 -17.7 °C -17.9 °C 34990.9 hPa Calm     98 % 0 mm
08:02 -17.8 °C -18 °C 34990.9 hPa Calm     98 % 0 mm
08:12 -17.8 °C -18 °C 34980.8 hPa Calm     98 % 0 mm
08:17 -17.9 °C -18.1 °C 34980.8 hPa Calm     98 % 0 mm
08:22 -17.9 °C -18.2 °C 34990.9 hPa Calm   2.6 km/h 97 % 0 mm
08:27 -17.9 °C -18.1 °C 34990.9 hPa Calm   2.6 km/h 98 % 0 mm
08:32 -17.7 °C -17.9 °C 34980.8 hPa Calm   2.6 km/h 98 % 0 mm
08:42 -17.3 °C -17.4 °C 34990.9 hPa Calm   5.1 km/h 98 % 0 mm
08:47 -17.2 °C -17.3 °C 34990.9 hPa Calm   5.1 km/h 98 % 0 mm
08:52 -17.1 °C -17.2 °C 34990.9 hPa SW 2.6 km/h 5.1 km/h 98 % 0 mm
08:57 -17 °C -17.2 °C 34990.9 hPa Calm   5.1 km/h 98 % 0 mm
09:02 -16.9 °C -17.1 °C 34990.9 hPa Calm   2.6 km/h 98 % 0 mm
09:12 -16.9 °C -17.1 °C 34990.9 hPa Calm   2.6 km/h 98 % 0 mm
09:17 -16.8 °C -16.9 °C 34990.9 hPa Calm   2.6 km/h 98 % 0 mm
09:22 -16.7 °C -16.9 °C 34990.9 hPa Calm   2.6 km/h 98 % 0 mm
09:27 -16.7 °C -16.8 °C 35001.1 hPa Calm   2.6 km/h 98 % 0 mm
09:32 -16.6 °C -16.7 °C 35001.1 hPa Calm   2.6 km/h 98 % 0 mm
09:37 -16.4 °C -16.5 °C 35001.1 hPa Calm   2.6 km/h 99 % 0 mm
09:42 -16.3 °C -16.3 °C 35001.1 hPa Calm   2.6 km/h 99 % 0 mm
09:47 -16.2 °C -16.3 °C 35001.1 hPa Calm   2.6 km/h 99 % 0 mm
09:57 -16.2 °C -16.2 °C 34990.9 hPa Calm   2.6 km/h 99 % 0 mm
10:02 -16 °C -16.1 °C 34990.9 hPa Calm   2.6 km/h 99 % 0 mm
10:07 -15.9 °C -16 °C 34990.9 hPa Calm   2.6 km/h 99 % 0 mm
10:12 -15.9 °C -16 °C 34990.9 hPa Calm   2.6 km/h 99 % 0 mm
10:17 -15.9 °C -15.9 °C 34990.9 hPa WSW 2.6 km/h 5.1 km/h 99 % 0 mm
10:22 -15.8 °C -15.9 °C 34990.9 hPa WSW 2.6 km/h 5.1 km/h 99 % 0 mm
10:27 -15.8 °C -15.8 °C 34990.9 hPa Calm   7.7 km/h 99 % 0 mm
10:32 -15.8 °C -15.8 °C 34990.9 hPa Calm   7.7 km/h 99 % 0 mm
10:37 -15.7 °C -15.8 °C 35001.1 hPa SW 2.6 km/h 7.7 km/h 99 % 0 mm
10:42 -15.7 °C -15.7 °C 35001.1 hPa SW 5.1 km/h 7.7 km/h 99 % 0 mm
10:47 -15.7 °C -15.7 °C 35001.1 hPa Calm   7.7 km/h 99 % 0 mm
10:52 -15.6 °C -15.7 °C 35001.1 hPa WSW 5.1 km/h 7.7 km/h 99 % 0 mm
10:57 -15.4 °C -15.5 °C 35001.1 hPa Calm   7.7 km/h 99 % 0 mm
11:07 -15.3 °C -15.4 °C 35001.1 hPa Calm   10.3 km/h 99 % 0 mm
11:12 -15.2 °C -15.3 °C 35001.1 hPa Calm   10.3 km/h 99 % 0 mm
11:22 -15.1 °C -15.2 °C 35001.1 hPa WSW 2.6 km/h 10.3 km/h 99 % 0 mm
11:32 -15.2 °C -15.4 °C 35014.6 hPa SW 10.3 km/h 10.3 km/h 98 % 0 mm
11:37 -15.2 °C -15.3 °C 35014.6 hPa SW 7.7 km/h 15.6 km/h 98 % 0 mm
11:42 -15.1 °C -15.3 °C 35014.6 hPa WSW 10.3 km/h 15.6 km/h 98 % 0 mm
11:47 -15.2 °C -15.3 °C 35014.6 hPa SW 2.6 km/h 15.6 km/h 98 % 0 mm
11:52 -15.2 °C -15.3 °C 35014.6 hPa West 7.7 km/h 20.8 km/h 98 % 0 mm
11:57 -15.1 °C -15.3 °C 35014.6 hPa WSW 2.6 km/h 20.8 km/h 98 % 0 mm
12:02 -14.9 °C -15.1 °C 35014.6 hPa WSW 7.7 km/h 20.8 km/h 98 % 0 mm
12:12 -14.7 °C -14.8 °C 35001.1 hPa Calm   15.6 km/h 98 % 0 mm
12:17 -14.6 °C -14.7 °C 35001.1 hPa WSW 2.6 km/h 15.6 km/h 98 % 0 mm
12:22 -14.4 °C -14.6 °C 35001.1 hPa SW 2.6 km/h 15.6 km/h 98 % 0 mm
12:27 -14.4 °C -14.6 °C 35001.1 hPa SW 5.1 km/h 15.6 km/h 98 % 0 mm
12:32 -14.4 °C -14.6 °C 35001.1 hPa SW 5.1 km/h 15.6 km/h 97 % 0 mm
12:42 -14.3 °C -14.7 °C 34990.9 hPa SW 7.7 km/h 12.9 km/h 95 % 0 mm
12:52 -14.2 °C -14.7 °C 34980.8 hPa WSW 7.7 km/h 23.3 km/h 94 % 0 mm
12:57 -14.3 °C -14.8 °C 34990.9 hPa SW 7.7 km/h 18.2 km/h 93 % 0 mm
13:02 -14.1 °C -14.7 °C 34990.9 hPa SW 5.1 km/h 18.2 km/h 93 % 0 mm
13:12 -14.1 °C -14.8 °C 34990.9 hPa SW 10.3 km/h 18.2 km/h 91 % 0 mm
13:17 -14 °C -14.8 °C 34980.8 hPa WSW 5.1 km/h 18.2 km/h 91 % 0 mm
13:22 -13.9 °C -14.8 °C 34980.8 hPa SW 5.1 km/h 18.2 km/h 90 % 0 mm
13:27 -13.8 °C -14.7 °C 34980.8 hPa SSW 2.6 km/h 18.2 km/h 90 % 0 mm
13:32 -13.8 °C -14.8 °C 34980.8 hPa Calm   18.2 km/h 89 % 0 mm
13:37 -13.7 °C -14.7 °C 34980.8 hPa SW 5.1 km/h 18.2 km/h 89 % 0 mm
13:42 -13.6 °C -14.5 °C 34967.2 hPa SSW 5.1 km/h 18.2 km/h 89 % 0 mm
13:47 -13.5 °C -14.6 °C 34967.2 hPa SW 2.6 km/h 12.9 km/h 88 % 0 mm
13:52 -13.4 °C -14.5 °C 34967.2 hPa ESE 5.1 km/h 15.6 km/h 88 % 0 mm
13:57 -13.5 °C -14.7 °C 34967.2 hPa WSW 5.1 km/h 18.2 km/h 86 % 0 mm
14:02 -13.4 °C -14.4 °C 34967.2 hPa WSW 5.1 km/h 18.2 km/h 89 % 0 mm
14:12 -13.2 °C -14.2 °C 34957.1 hPa South 5.1 km/h 18.2 km/h 89 % 0 mm
14:17 -13.2 °C -14.4 °C 34957.1 hPa WSW 7.7 km/h 15.6 km/h 86 % 0 mm
14:22 -13.2 °C -14.4 °C 34957.1 hPa WSW 2.6 km/h 18.2 km/h 86 % 0 mm
14:32 -13 °C -14.3 °C 34946.9 hPa West 2.6 km/h 18.2 km/h 85 % 0 mm
14:37 -12.9 °C -14.1 °C 34946.9 hPa SW 5.1 km/h 15.6 km/h 86 % 0 mm
14:42 -12.8 °C -14.4 °C 34946.9 hPa WSW 2.6 km/h 15.6 km/h 82 % 0 mm
14:47 -12.9 °C -14.4 °C 34957.1 hPa WSW 5.1 km/h 18.2 km/h 83 % 0 mm
14:52 -12.9 °C -14.4 °C 34946.9 hPa SW 5.1 km/h 18.2 km/h 83 % 0 mm
14:57 -12.9 °C -14.6 °C 34946.9 hPa SW 2.6 km/h 18.2 km/h 82 % 0 mm
15:02 -12.9 °C -14.4 °C 34946.9 hPa SW 10.3 km/h 18.2 km/h 83 % 0 mm
15:12 -13 °C -14.6 °C 34946.9 hPa SW 5.1 km/h 12.9 km/h 82 % 0 mm
15:17 -13 °C -14.5 °C 34933.4 hPa SW 7.7 km/h 18.2 km/h 83 % 0 mm
15:22 -12.9 °C -14.2 °C 34933.4 hPa WSW 2.6 km/h 18.2 km/h 85 % 0 mm
15:27 -12.7 °C -14.1 °C 34933.4 hPa SSW 5.1 km/h 10.3 km/h 84 % 0 mm
15:32 -12.6 °C -14.4 °C 34933.4 hPa WSW 7.7 km/h 10.3 km/h 80 % 0 mm
15:37 -12.7 °C -14.5 °C 34933.4 hPa WSW 7.7 km/h 23.3 km/h 80 % 0 mm
15:42 -12.7 °C -14.4 °C 34933.4 hPa Calm   23.3 km/h 81 % 0 mm
15:47 -12.8 °C -14.5 °C 34933.4 hPa SW 2.6 km/h 23.3 km/h 81 % 0 mm
15:57 -12.8 °C -14.6 °C 34933.4 hPa Calm   15.6 km/h 81 % 0 mm
16:02 -12.8 °C -14.7 °C 34923.2 hPa SW 7.7 km/h 15.6 km/h 80 % 0 mm
16:07 -12.7 °C -14.4 °C 34923.2 hPa SW 5.1 km/h 15.6 km/h 81 % 0 mm
16:17 -12.6 °C -14.4 °C 34923.2 hPa Calm   10.3 km/h 80 % 0 mm
16:22 -12.6 °C -14.6 °C 34923.2 hPa SW 5.1 km/h 10.3 km/h 79 % 0 mm
16:27 -12.7 °C -14.6 °C 34909.7 hPa SW 2.6 km/h 18.2 km/h 79 % 0 mm
16:32 -12.7 °C -14.6 °C 34923.2 hPa SSW 5.1 km/h 18.2 km/h 79 % 0 mm
16:37 -12.7 °C -14.5 °C 34909.7 hPa SW 7.7 km/h 18.2 km/h 80 % 0 mm
16:47 -12.8 °C -14.7 °C 34909.7 hPa SW 5.1 km/h 20.8 km/h 80 % 0 mm
16:52 -12.9 °C -14.7 °C 34909.7 hPa SW 2.6 km/h 20.8 km/h 81 % 0 mm
17:02 -13 °C -14.6 °C 34909.7 hPa SW 2.6 km/h 10.3 km/h 82 % 0 mm
17:07 -13.1 °C -14.7 °C 34909.7 hPa SW 2.6 km/h 10.3 km/h 82 % 0 mm
17:12 -13.2 °C -14.7 °C 34909.7 hPa SW 5.1 km/h 10.3 km/h 83 % 0 mm
17:17 -13.2 °C -14.7 °C 34909.7 hPa WSW 7.7 km/h 15.6 km/h 83 % 0 mm
17:22 -13.3 °C -14.7 °C 34909.7 hPa Calm   15.6 km/h 84 % 0 mm
17:32 -13.2 °C -14.6 °C 34909.7 hPa SW 2.6 km/h 15.6 km/h 84 % 0 mm
17:37 -13.3 °C -14.7 °C 34909.7 hPa Calm   10.3 km/h 84 % 0 mm
17:42 -13.4 °C -14.7 °C 34909.7 hPa Calm   10.3 km/h 85 % 0 mm
17:47 -13.5 °C -14.6 °C 34909.7 hPa Calm   7.7 km/h 87 % 0 mm
17:52 -13.6 °C -14.6 °C 34909.7 hPa SW 2.6 km/h 7.7 km/h 88 % 0 mm
17:57 -13.6 °C -14.7 °C 34909.7 hPa SW 2.6 km/h 7.7 km/h 87 % 0 mm
18:02 -13.6 °C -14.7 °C 34909.7 hPa Calm   7.7 km/h 87 % 0 mm
18:12 -13.6 °C -14.7 °C 34909.7 hPa Calm   7.7 km/h 88 % 0 mm
18:17 -13.7 °C -14.6 °C 34909.7 hPa SW 2.6 km/h 7.7 km/h 89 % 0 mm
18:22 -13.7 °C -14.6 °C 34909.7 hPa Calm   5.1 km/h 90 % 0 mm
18:27 -13.8 °C -14.6 °C 34909.7 hPa Calm   5.1 km/h 90 % 0 mm
18:32 -13.7 °C -14.7 °C 34909.7 hPa SW 2.6 km/h 5.1 km/h 89 % 0 mm
18:37 -13.7 °C -14.7 °C 34909.7 hPa SW 2.6 km/h 5.1 km/h 88 % 0 mm
18:42 -13.6 °C -14.7 °C 34909.7 hPa Calm   10.3 km/h 88 % 0 mm
18:47 -13.6 °C -14.7 °C 34909.7 hPa WSW 5.1 km/h 10.3 km/h 87 % 0 mm
18:52 -13.5 °C -14.6 °C 34923.2 hPa SE 2.6 km/h 12.9 km/h 87 % 0 mm
18:57 -13.6 °C -14.7 °C 34909.7 hPa SW 2.6 km/h 12.9 km/h 87 % 0 mm
19:02 -13.6 °C -14.6 °C 34923.2 hPa Calm   12.9 km/h 88 % 0 mm
19:12 -13.6 °C -14.8 °C 34923.2 hPa WSW 7.7 km/h 10.3 km/h 86 % 0 mm
19:17 -13.5 °C -14.7 °C 34923.2 hPa WSW 2.6 km/h 15.6 km/h 86 % 0 mm
19:22 -13.5 °C -14.8 °C 34923.2 hPa SW 10.3 km/h 15.6 km/h 85 % 0 mm
19:27 -13.5 °C -14.8 °C 34923.2 hPa SW 5.1 km/h 18.2 km/h 85 % 0 mm
19:32 -13.6 °C -14.9 °C 34923.2 hPa SW 5.1 km/h 18.2 km/h 85 % 0 mm
19:37 -13.6 °C -14.9 °C 34923.2 hPa SSW 7.7 km/h 18.2 km/h 85 % 0 mm
19:42 -13.6 °C -14.9 °C 34923.2 hPa SSW 2.6 km/h 18.2 km/h 85 % 0 mm
19:47 -13.6 °C -14.9 °C 34923.2 hPa SW 7.7 km/h 15.6 km/h 84 % 0 mm
19:52 -13.6 °C -14.9 °C 34909.7 hPa WSW 10.3 km/h 15.6 km/h 85 % 0 mm
19:57 -13.6 °C -14.9 °C 34909.7 hPa Calm   18.2 km/h 84 % 0 mm
20:02 -13.6 °C -14.9 °C 34909.7 hPa WSW 5.1 km/h 18.2 km/h 85 % 0 mm
20:12 -13.8 °C -14.9 °C 34909.7 hPa WSW 2.6 km/h 18.2 km/h 88 % 0 mm
20:17 -13.9 °C -14.9 °C 34909.7 hPa Calm   10.3 km/h 88 % 0 mm
20:22 -13.8 °C -14.9 °C 34909.7 hPa Calm   10.3 km/h 87 % 0 mm
20:27 -13.8 °C -15.1 °C 34909.7 hPa SW 10.3 km/h 15.6 km/h 86 % 0 mm
20:32 -13.9 °C -15 °C 34909.7 hPa WSW 5.1 km/h 15.6 km/h 87 % 0 mm
20:37 -14 °C -15.1 °C 34909.7 hPa SSE 2.6 km/h 18.2 km/h 87 % 0 mm
20:42 -13.9 °C -15.2 °C 34909.7 hPa South 12.9 km/h 18.2 km/h 86 % 0 mm
20:47 -13.9 °C -15.2 °C 34909.7 hPa WSW 15.6 km/h 23.3 km/h 86 % 0 mm
20:52 -13.9 °C -15.1 °C 34909.7 hPa WSW 7.7 km/h 23.3 km/h 86 % 0 mm
20:57 -13.9 °C -15.1 °C 34909.7 hPa WSW 2.6 km/h 18.2 km/h 86 % 0 mm
21:02 -13.9 °C -15.1 °C 34909.7 hPa SW 7.7 km/h 18.2 km/h 86 % 0 mm
21:07 -13.9 °C -15.2 °C 34909.7 hPa SW 10.3 km/h 18.2 km/h 86 % 0 mm
21:12 -13.9 °C -15.1 °C 34909.7 hPa SSW 5.1 km/h 18.2 km/h 86 % 0 mm
21:17 -13.9 °C -15.1 °C 34909.7 hPa SW 7.7 km/h 15.6 km/h 86 % 0 mm
21:22 -13.9 °C -15 °C 34909.7 hPa WSW 5.1 km/h 15.6 km/h 87 % 0 mm
21:27 -13.9 °C -15 °C 34909.7 hPa ESE 2.6 km/h 18.2 km/h 87 % 0 mm
21:32 -13.9 °C -15 °C 34909.7 hPa WSW 5.1 km/h 18.2 km/h 87 % 0 mm
21:37 -13.9 °C -15 °C 34909.7 hPa SW 10.3 km/h 18.2 km/h 87 % 0 mm
21:42 -13.8 °C -15.1 °C 34899.5 hPa SW 12.9 km/h 18.2 km/h 86 % 0 mm
21:47 -13.8 °C -15.1 °C 34899.5 hPa SW 5.1 km/h 15.6 km/h 86 % 0 mm
21:52 -13.8 °C -15.2 °C 34899.5 hPa SW 2.6 km/h 18.2 km/h 85 % 0 mm
21:57 -13.8 °C -15.1 °C 34899.5 hPa West 2.6 km/h 18.2 km/h 85 % 0 mm
22:02 -13.8 °C -15.1 °C 34899.5 hPa SW 12.9 km/h 18.2 km/h 85 % 0 mm
22:07 -13.8 °C -15.1 °C 34899.5 hPa SW 2.6 km/h 20.8 km/h 85 % 0 mm
22:12 -13.8 °C -15.2 °C 34899.5 hPa WSW 5.1 km/h 20.8 km/h 85 % 0 mm
22:17 -13.8 °C -15.2 °C 34899.5 hPa SSE 7.7 km/h 20.8 km/h 85 % 0 mm
22:22 -13.8 °C -15.2 °C 34889.3 hPa SW 5.1 km/h 20.8 km/h 85 % 0 mm
22:27 -13.8 °C -15.1 °C 34889.3 hPa WSW 7.7 km/h 23.3 km/h 86 % 0 mm
22:32 -13.9 °C -15.1 °C 34889.3 hPa WSW 10.3 km/h 23.3 km/h 86 % 0 mm
22:37 -13.9 °C -15.2 °C 34875.8 hPa SE 7.7 km/h 23.3 km/h 86 % 0 mm
22:47 -13.9 °C -15.1 °C 34875.8 hPa SW 7.7 km/h 18.2 km/h 87 % 0 mm
22:52 -14 °C -15.1 °C 34875.8 hPa SW 7.7 km/h 18.2 km/h 87 % 0 mm
22:57 -14 °C -15 °C 34865.6 hPa SW 10.3 km/h 15.6 km/h 88 % 0 mm
23:02 -14 °C -15 °C 34865.6 hPa SW 5.1 km/h 15.6 km/h 88 % 0 mm
23:07 -14 °C -15 °C 34865.6 hPa WSW 5.1 km/h 15.6 km/h 88 % 0 mm
23:12 -13.9 °C -14.9 °C 34865.6 hPa South 5.1 km/h 15.6 km/h 88 % 0 mm
23:17 -14 °C -15 °C 34865.6 hPa SW 7.7 km/h 18.2 km/h 88 % 0 mm
23:22 -14.1 °C -15.1 °C 34865.6 hPa WSW 10.3 km/h 18.2 km/h 88 % 0 mm
23:27 -14.1 °C -15.1 °C 34865.6 hPa SSW 2.6 km/h 12.9 km/h 88 % 0 mm
23:32 -14.1 °C -15.1 °C 34865.6 hPa WSW 2.6 km/h 12.9 km/h 88 % 0 mm
23:37 -14.2 °C -15.2 °C 34852.1 hPa WSW 10.3 km/h 12.9 km/h 88 % 0 mm
23:42 -14.2 °C -15.2 °C 34852.1 hPa WSW 5.1 km/h 12.9 km/h 88 % 0 mm
23:47 -14.2 °C -15.2 °C 34852.1 hPa SW 5.1 km/h 15.6 km/h 88 % 0 mm
23:52 -14.3 °C -15.3 °C 34852.1 hPa SW 10.3 km/h 15.6 km/h 88 % 0 mm
23:57 -14.3 °C -15.3 °C 34852.1 hPa SW 7.7 km/h 12.9 km/h 88 % 0 mm
Meteo18
Compliments of Weather Underground - 4 mb

Script developed by  Jim McMurry - jmcmurry@mwt.net Adapted for the template by  Wim van der Kuil - Leuven-Template.eu

You find our weather info also at:

European Weather Network

Weather Underground

Equipment we use:

Weather-station
Davis Vue

Weather-program
Meteobridge

Weather-server
Raspberry PI 2 B+

Provider
1 and 1

Davis Vue

Meteobridge

Raspberry PI 2 B+

1 and 1